Impacts METAR Board
IDs:

KDFW - Dallas-Ft Worth Intl, TX, US

Updated at: 0100 UTC 25 Mar 2019
Potential Impact None Slight Moderate High
Time 24/13Z 24/14Z 24/15Z 24/16Z 24/17Z 24/18Z 24/19Z 24/20Z 24/21Z 24/22Z 24/23Z 25/00Z 25/01Z
Temp61 63 67 72 76 77 81 81 80 81 79 78 76
Dewpt59 60 61 61 61 60 61 60 60 61 61 62 61
Altim30.01 30.02 30.03 30.03 30.03 30.01 29.99 29.96 29.94 29.93 29.90 29.90 29.92
VIS9 9 10 10 10 10 10 10 10 10 10 10 10
CIG-- 7 12 17 28 34 300 55 49 120 250 -- 160
CoverFEWOVCBKNBKNBKNBKNBKNBKNBKNBKNBKNSCTBKN
FltCatVFRIFRMVFRMVFRMVFRVFRVFRVFRVFRVFRVFRVFRVFR
WX------------------------TS
WDir180190200200240210180170170180170180170
WSpd9 18 16 14 14 14 11 10 12 13 18 17 13
WGst-- -- -- -- -- -- 19 -- 18 -- 25 -- --
Raw hourly METARs
KDFW 241253Z 18009KT 9SM FEW020 FEW300 16/15 A3001 RMK AO2 SLP158 T01610150
KDFW 241353Z 19018KT 9SM OVC007 17/16 A3002 RMK AO2 SLP160 T01720156
KDFW 241453Z 20016KT 10SM BKN012 BKN017 BKN300 19/16 A3003 RMK AO2 SLP164 T01940161 53010
KDFW 241553Z 20014KT 10SM BKN017 BKN300 22/16 A3003 RMK AO2 SLP164 T02220161
KDFW 241653Z 24014KT 10SM BKN028 BKN300 24/16 A3003 RMK AO2 SLP161 T02440161
KDFW 241753Z 21014KT 10SM BKN034 BKN300 25/16 A3001 RMK AO2 SLP156 T02500156 10256 20156 58006
KDFW 241853Z 18011G19KT 10SM SCT037 BKN300 27/16 A2999 RMK AO2 SLP146 T02720161
KDFW 241953Z 17010KT 10SM FEW040 BKN055 BKN300 27/16 A2996 RMK AO2 SLP137 T02720156
KDFW 242053Z 17012G18KT 10SM BKN049 BKN065 BKN085 BKN250 27/16 A2994 RMK AO2 SLP132 MDT CU ALQDS T02670156 56024
KDFW 242153Z 18013KT 10SM SCT050TCU BKN120 BKN250 27/16 A2993 RMK AO2 SLP127 TCU ALQDS T02720161
KDFW 242253Z 17018G25KT 10SM FEW055 FEW120 BKN250 26/16 A2990 RMK AO2 LTG DSNT N AND NE SLP119 CB DSNT NW-NE MOV E T02610161
KDFW 242353Z 18017KT 10SM FEW055 FEW120 SCT250 26/17 A2990 RMK AO2 LTG DSNT NW-E SLP118 OCNL LTGIC DSNT NW-NE CB DSNT NW-NE MOV E T02560167 10283 20250 56013
KDFW 250053Z COR 17013KT 10SM TS SCT055CB BKN160 BKN250 24/16 A2992 RMK AO2 LTG DSNT W-NE TSE33B53 SLP125 OCNL LTGICCG W-NE TS W-NE MOV E T02440161



Page loaded:  01:10 UTC  |   06:10 PM Pacific  |   07:10 PM Mountain  |   08:10 PM Central  |   09:10 PM Eastern

 

ADVISORIES

FORECASTS

FORECASTS

OBSERVATIONS

USER TOOLS

ABOUT US